sensor_id;sensor_type;location;lat;lon;timestamp;temperature;humidity
506;DHT22;551;48.524;9.056;2023-05-07T00:01:08;14.60;1.00
506;DHT22;551;48.524;9.056;2023-05-07T00:03:34;14.50;1.00
506;DHT22;551;48.524;9.056;2023-05-07T00:05:59;14.50;1.00
506;DHT22;551;48.524;9.056;2023-05-07T00:08:25;14.50;1.00
506;DHT22;551;48.524;9.056;2023-05-07T00:10:50;14.40;1.00
506;DHT22;551;48.524;9.056;2023-05-07T00:13:16;14.40;1.00
506;DHT22;551;48.524;9.056;2023-05-07T00:15:41;14.40;1.00
506;DHT22;551;48.524;9.056;2023-05-07T00:18:07;14.40;1.00
506;DHT22;551;48.524;9.056;2023-05-07T00:20:32;14.40;1.00
506;DHT22;551;48.524;9.056;2023-05-07T00:22:58;14.30;1.00
506;DHT22;551;48.524;9.056;2023-05-07T00:25:23;14.40;1.00
506;DHT22;551;48.524;9.056;2023-05-07T00:27:49;14.30;1.00
506;DHT22;551;48.524;9.056;2023-05-07T00:30:14;14.30;1.00
506;DHT22;551;48.524;9.056;2023-05-07T00:32:40;14.30;1.00
506;DHT22;551;48.524;9.056;2023-05-07T00:35:06;14.30;1.00
506;DHT22;551;48.524;9.056;2023-05-07T00:37:32;14.40;1.00
506;DHT22;551;48.524;9.056;2023-05-07T00:39:58;14.30;1.00
506;DHT22;551;48.524;9.056;2023-05-07T00:42:24;14.40;1.00
506;DHT22;551;48.524;9.056;2023-05-07T00:44:49;14.40;1.00
506;DHT22;551;48.524;9.056;2023-05-07T00:47:15;14.30;1.00
506;DHT22;551;48.524;9.056;2023-05-07T00:49:43;14.30;1.00
506;DHT22;551;48.524;9.056;2023-05-07T00:52:11;14.30;1.00
506;DHT22;551;48.524;9.056;2023-05-07T00:54:38;14.20;1.00
506;DHT22;551;48.524;9.056;2023-05-07T00:57:05;14.20;1.00
506;DHT22;551;48.524;9.056;2023-05-07T00:59:32;14.20;1.00
506;DHT22;551;48.524;9.056;2023-05-07T01:01:59;14.10;1.00
506;DHT22;551;48.524;9.056;2023-05-07T01:04:25;14.10;1.00
506;DHT22;551;48.524;9.056;2023-05-07T01:06:52;14.10;1.00
506;DHT22;551;48.524;9.056;2023-05-07T01:09:19;14.10;1.00
506;DHT22;551;48.524;9.056;2023-05-07T01:11:47;14.00;1.00
506;DHT22;551;48.524;9.056;2023-05-07T01:14:13;13.90;1.00
506;DHT22;551;48.524;9.056;2023-05-07T01:16:38;13.90;1.00
506;DHT22;551;48.524;9.056;2023-05-07T01:19:07;13.90;1.00
506;DHT22;551;48.524;9.056;2023-05-07T01:21:33;13.90;1.00
506;DHT22;551;48.524;9.056;2023-05-07T01:24:00;13.80;1.00
506;DHT22;551;48.524;9.056;2023-05-07T01:26:26;13.80;1.00
506;DHT22;551;48.524;9.056;2023-05-07T01:28:51;13.80;1.00
506;DHT22;551;48.524;9.056;2023-05-07T01:31:17;13.80;1.00
506;DHT22;551;48.524;9.056;2023-05-07T01:33:44;13.80;1.00
506;DHT22;551;48.524;9.056;2023-05-07T01:36:11;13.70;1.00
506;DHT22;551;48.524;9.056;2023-05-07T01:38:37;13.70;1.00
506;DHT22;551;48.524;9.056;2023-05-07T01:41:03;13.70;1.00
506;DHT22;551;48.524;9.056;2023-05-07T01:43:29;13.70;1.00
506;DHT22;551;48.524;9.056;2023-05-07T01:45:55;13.60;1.00
506;DHT22;551;48.524;9.056;2023-05-07T01:48:22;13.60;1.00
506;DHT22;551;48.524;9.056;2023-05-07T01:50:49;13.60;1.00
506;DHT22;551;48.524;9.056;2023-05-07T01:53:15;13.60;1.00
506;DHT22;551;48.524;9.056;2023-05-07T01:55:41;13.50;1.00
506;DHT22;551;48.524;9.056;2023-05-07T01:58:06;13.40;1.00
506;DHT22;551;48.524;9.056;2023-05-07T02:00:32;13.50;1.00
506;DHT22;551;48.524;9.056;2023-05-07T02:02:57;13.50;1.00
506;DHT22;551;48.524;9.056;2023-05-07T02:05:23;13.50;1.00
506;DHT22;551;48.524;9.056;2023-05-07T02:07:49;13.50;1.00
506;DHT22;551;48.524;9.056;2023-05-07T02:10:14;13.50;1.00
506;DHT22;551;48.524;9.056;2023-05-07T02:12:40;13.50;1.00
506;DHT22;551;48.524;9.056;2023-05-07T02:15:06;13.50;1.00
506;DHT22;551;48.524;9.056;2023-05-07T02:17:31;13.50;1.00
506;DHT22;551;48.524;9.056;2023-05-07T02:19:58;13.50;1.00
506;DHT22;551;48.524;9.056;2023-05-07T02:22:24;13.50;1.00
506;DHT22;551;48.524;9.056;2023-05-07T02:24:49;13.40;1.00
506;DHT22;551;48.524;9.056;2023-05-07T02:27:15;13.40;1.00
506;DHT22;551;48.524;9.056;2023-05-07T02:29:40;13.30;1.00
506;DHT22;551;48.524;9.056;2023-05-07T02:32:06;13.30;1.00
506;DHT22;551;48.524;9.056;2023-05-07T02:34:31;13.20;1.00
506;DHT22;551;48.524;9.056;2023-05-07T02:36:57;13.10;1.00
506;DHT22;551;48.524;9.056;2023-05-07T02:39:22;13.00;1.00
506;DHT22;551;48.524;9.056;2023-05-07T02:41:48;13.00;1.00
506;DHT22;551;48.524;9.056;2023-05-07T02:44:13;13.00;1.00
506;DHT22;551;48.524;9.056;2023-05-07T02:46:39;13.00;1.00
506;DHT22;551;48.524;9.056;2023-05-07T02:49:04;12.90;1.00
506;DHT22;551;48.524;9.056;2023-05-07T02:51:30;12.90;1.00
506;DHT22;551;48.524;9.056;2023-05-07T02:53:56;12.90;1.00
506;DHT22;551;48.524;9.056;2023-05-07T02:56:21;12.90;1.00
506;DHT22;551;48.524;9.056;2023-05-07T02:58:47;12.80;1.00
506;DHT22;551;48.524;9.056;2023-05-07T03:01:13;12.80;1.00
506;DHT22;551;48.524;9.056;2023-05-07T03:03:39;12.70;1.00
506;DHT22;551;48.524;9.056;2023-05-07T03:06:05;12.70;1.00
506;DHT22;551;48.524;9.056;2023-05-07T03:08:32;12.70;1.00
506;DHT22;551;48.524;9.056;2023-05-07T03:10:57;12.70;1.00
506;DHT22;551;48.524;9.056;2023-05-07T03:13:23;12.60;1.00
506;DHT22;551;48.524;9.056;2023-05-07T03:15:48;12.60;1.00
506;DHT22;551;48.524;9.056;2023-05-07T03:18:14;12.60;1.00
506;DHT22;551;48.524;9.056;2023-05-07T03:20:39;12.60;1.00
506;DHT22;551;48.524;9.056;2023-05-07T03:23:05;12.50;1.00
506;DHT22;551;48.524;9.056;2023-05-07T03:25:31;12.50;1.00
506;DHT22;551;48.524;9.056;2023-05-07T03:27:57;12.50;1.00
506;DHT22;551;48.524;9.056;2023-05-07T03:30:22;12.50;1.00
506;DHT22;551;48.524;9.056;2023-05-07T03:32:48;12.50;1.00
506;DHT22;551;48.524;9.056;2023-05-07T03:35:14;12.60;1.00
506;DHT22;551;48.524;9.056;2023-05-07T03:37:39;12.50;1.00
506;DHT22;551;48.524;9.056;2023-05-07T03:40:06;12.50;1.00
506;DHT22;551;48.524;9.056;2023-05-07T03:42:31;12.60;1.00
506;DHT22;551;48.524;9.056;2023-05-07T03:44:57;12.50;1.00
506;DHT22;551;48.524;9.056;2023-05-07T03:47:22;12.50;1.00
506;DHT22;551;48.524;9.056;2023-05-07T03:49:48;12.50;1.00
506;DHT22;551;48.524;9.056;2023-05-07T03:52:14;12.50;1.00
506;DHT22;551;48.524;9.056;2023-05-07T03:54:40;12.50;1.00
506;DHT22;551;48.524;9.056;2023-05-07T03:57:05;12.60;1.00
506;DHT22;551;48.524;9.056;2023-05-07T03:59:31;12.60;1.00
506;DHT22;551;48.524;9.056;2023-05-07T04:01:56;12.60;1.00
506;DHT22;551;48.524;9.056;2023-05-07T04:04:22;12.50;1.00
506;DHT22;551;48.524;9.056;2023-05-07T04:06:47;12.50;1.00
506;DHT22;551;48.524;9.056;2023-05-07T04:09:13;12.50;1.00
506;DHT22;551;48.524;9.056;2023-05-07T04:11:39;12.50;1.00
506;DHT22;551;48.524;9.056;2023-05-07T04:14:05;12.50;1.00
506;DHT22;551;48.524;9.056;2023-05-07T04:16:31;12.50;1.00
506;DHT22;551;48.524;9.056;2023-05-07T04:18:56;12.50;1.00
506;DHT22;551;48.524;9.056;2023-05-07T04:21:22;12.50;1.00
506;DHT22;551;48.524;9.056;2023-05-07T04:23:48;12.60;1.00
506;DHT22;551;48.524;9.056;2023-05-07T04:26:14;12.60;1.00
506;DHT22;551;48.524;9.056;2023-05-07T04:28:40;12.60;1.00
506;DHT22;551;48.524;9.056;2023-05-07T04:31:06;12.60;1.00
506;DHT22;551;48.524;9.056;2023-05-07T04:33:32;12.60;1.00
506;DHT22;551;48.524;9.056;2023-05-07T04:36:02;12.70;1.00
506;DHT22;551;48.524;9.056;2023-05-07T04:38:31;12.70;1.00
506;DHT22;551;48.524;9.056;2023-05-07T04:40:58;12.70;1.00
506;DHT22;551;48.524;9.056;2023-05-07T04:43:27;12.70;1.00
506;DHT22;551;48.524;9.056;2023-05-07T04:45:53;12.80;1.00
506;DHT22;551;48.524;9.056;2023-05-07T04:48:18;12.80;1.00
506;DHT22;551;48.524;9.056;2023-05-07T04:50:49;12.80;1.00
506;DHT22;551;48.524;9.056;2023-05-07T04:53:14;12.90;1.00
506;DHT22;551;48.524;9.056;2023-05-07T04:55:40;13.20;1.00
506;DHT22;551;48.524;9.056;2023-05-07T04:58:06;14.00;1.00
506;DHT22;551;48.524;9.056;2023-05-07T05:00:31;15.20;1.00
506;DHT22;551;48.524;9.056;2023-05-07T05:02:57;16.50;1.00
506;DHT22;551;48.524;9.056;2023-05-07T05:05:22;17.80;1.00
506;DHT22;551;48.524;9.056;2023-05-07T05:07:48;19.00;1.00
506;DHT22;551;48.524;9.056;2023-05-07T05:10:13;19.80;1.00
506;DHT22;551;48.524;9.056;2023-05-07T05:12:39;20.30;1.00
506;DHT22;551;48.524;9.056;2023-05-07T05:15:05;21.00;1.00
506;DHT22;551;48.524;9.056;2023-05-07T05:17:31;22.00;1.00
506;DHT22;551;48.524;9.056;2023-05-07T05:19:56;23.00;1.00
506;DHT22;551;48.524;9.056;2023-05-07T05:22:23;23.80;1.00
506;DHT22;551;48.524;9.056;2023-05-07T05:24:49;24.80;1.00
506;DHT22;551;48.524;9.056;2023-05-07T05:27:14;25.60;1.00
506;DHT22;551;48.524;9.056;2023-05-07T05:29:40;26.50;1.00
506;DHT22;551;48.524;9.056;2023-05-07T05:32:05;26.90;1.00
506;DHT22;551;48.524;9.056;2023-05-07T05:34:31;27.50;1.00
506;DHT22;551;48.524;9.056;2023-05-07T05:36:58;27.60;1.00
506;DHT22;551;48.524;9.056;2023-05-07T05:39:24;27.60;1.00
506;DHT22;551;48.524;9.056;2023-05-07T05:41:49;27.20;1.00
506;DHT22;551;48.524;9.056;2023-05-07T05:44:15;27.00;1.00
506;DHT22;551;48.524;9.056;2023-05-07T05:46:40;26.80;1.00
506;DHT22;551;48.524;9.056;2023-05-07T05:49:06;26.70;1.00
506;DHT22;551;48.524;9.056;2023-05-07T05:51:32;26.90;1.00
506;DHT22;551;48.524;9.056;2023-05-07T05:53:57;26.90;1.00
506;DHT22;551;48.524;9.056;2023-05-07T05:56:23;27.00;1.00
506;DHT22;551;48.524;9.056;2023-05-07T05:58:48;27.50;1.00
506;DHT22;551;48.524;9.056;2023-05-07T06:01:14;27.80;1.00
506;DHT22;551;48.524;9.056;2023-05-07T06:03:39;27.90;1.00
506;DHT22;551;48.524;9.056;2023-05-07T06:06:05;27.70;1.00
506;DHT22;551;48.524;9.056;2023-05-07T06:08:31;27.50;1.00
506;DHT22;551;48.524;9.056;2023-05-07T06:10:57;27.90;1.00
506;DHT22;551;48.524;9.056;2023-05-07T06:13:22;27.40;1.00
506;DHT22;551;48.524;9.056;2023-05-07T06:15:49;27.60;1.00
506;DHT22;551;48.524;9.056;2023-05-07T06:18:14;27.80;1.00
506;DHT22;551;48.524;9.056;2023-05-07T06:20:40;28.00;1.00
506;DHT22;551;48.524;9.056;2023-05-07T06:23:05;28.40;1.00
506;DHT22;551;48.524;9.056;2023-05-07T06:25:31;29.50;1.00
506;DHT22;551;48.524;9.056;2023-05-07T06:27:56;29.60;1.00
506;DHT22;551;48.524;9.056;2023-05-07T06:30:22;29.40;1.00
506;DHT22;551;48.524;9.056;2023-05-07T06:32:47;29.60;1.00
506;DHT22;551;48.524;9.056;2023-05-07T06:35:13;29.80;1.00
506;DHT22;551;48.524;9.056;2023-05-07T06:37:38;29.80;1.00
506;DHT22;551;48.524;9.056;2023-05-07T06:40:05;29.60;1.00
506;DHT22;551;48.524;9.056;2023-05-07T06:42:32;29.20;1.00
506;DHT22;551;48.524;9.056;2023-05-07T06:44:57;29.40;1.00
506;DHT22;551;48.524;9.056;2023-05-07T06:47:23;29.70;1.00
506;DHT22;551;48.524;9.056;2023-05-07T06:49:51;29.40;1.00
506;DHT22;551;48.524;9.056;2023-05-07T06:52:17;29.30;1.00
506;DHT22;551;48.524;9.056;2023-05-07T06:54:42;29.00;1.00
506;DHT22;551;48.524;9.056;2023-05-07T06:57:08;28.60;1.00
506;DHT22;551;48.524;9.056;2023-05-07T06:59:33;28.20;1.00
506;DHT22;551;48.524;9.056;2023-05-07T07:01:59;27.50;1.00
506;DHT22;551;48.524;9.056;2023-05-07T07:04:24;27.30;1.00
506;DHT22;551;48.524;9.056;2023-05-07T07:06:52;27.60;1.00
506;DHT22;551;48.524;9.056;2023-05-07T07:09:18;28.20;1.00
506;DHT22;551;48.524;9.056;2023-05-07T07:11:43;29.40;1.00
506;DHT22;551;48.524;9.056;2023-05-07T07:14:09;30.50;1.00
506;DHT22;551;48.524;9.056;2023-05-07T07:16:34;31.30;1.00
506;DHT22;551;48.524;9.056;2023-05-07T07:19:00;32.40;1.00
506;DHT22;551;48.524;9.056;2023-05-07T07:21:26;33.50;1.00
506;DHT22;551;48.524;9.056;2023-05-07T07:23:51;34.40;1.00
506;DHT22;551;48.524;9.056;2023-05-07T07:26:17;35.20;1.00
506;DHT22;551;48.524;9.056;2023-05-07T07:28:43;36.10;1.00
506;DHT22;551;48.524;9.056;2023-05-07T07:31:09;37.50;1.00
506;DHT22;551;48.524;9.056;2023-05-07T07:33:35;38.50;1.00
506;DHT22;551;48.524;9.056;2023-05-07T07:36:00;38.50;1.00
506;DHT22;551;48.524;9.056;2023-05-07T07:38:26;37.50;1.00
506;DHT22;551;48.524;9.056;2023-05-07T07:40:51;36.60;1.00
506;DHT22;551;48.524;9.056;2023-05-07T07:43:17;34.50;1.00
506;DHT22;551;48.524;9.056;2023-05-07T07:45:42;33.10;1.00
506;DHT22;551;48.524;9.056;2023-05-07T07:48:08;31.50;1.00
506;DHT22;551;48.524;9.056;2023-05-07T07:50:34;30.60;1.00
506;DHT22;551;48.524;9.056;2023-05-07T07:52:59;29.10;1.00
506;DHT22;551;48.524;9.056;2023-05-07T07:55:25;28.50;1.00
506;DHT22;551;48.524;9.056;2023-05-07T07:57:52;27.90;1.00
506;DHT22;551;48.524;9.056;2023-05-07T08:00:18;27.10;1.00
506;DHT22;551;48.524;9.056;2023-05-07T08:02:43;27.20;1.00
506;DHT22;551;48.524;9.056;2023-05-07T08:05:10;26.80;1.00
506;DHT22;551;48.524;9.056;2023-05-07T08:07:35;26.40;1.00
506;DHT22;551;48.524;9.056;2023-05-07T08:10:01;26.30;1.00
506;DHT22;551;48.524;9.056;2023-05-07T08:12:27;26.40;1.00
506;DHT22;551;48.524;9.056;2023-05-07T08:14:53;26.20;1.00
506;DHT22;551;48.524;9.056;2023-05-07T08:17:18;26.20;1.00
506;DHT22;551;48.524;9.056;2023-05-07T08:19:44;26.30;1.00
506;DHT22;551;48.524;9.056;2023-05-07T08:22:10;26.90;1.00
506;DHT22;551;48.524;9.056;2023-05-07T08:24:36;28.30;1.00
506;DHT22;551;48.524;9.056;2023-05-07T08:27:02;30.20;1.00
506;DHT22;551;48.524;9.056;2023-05-07T08:29:27;30.90;1.00
506;DHT22;551;48.524;9.056;2023-05-07T08:31:53;31.60;1.00
506;DHT22;551;48.524;9.056;2023-05-07T08:34:19;32.20;1.00
506;DHT22;551;48.524;9.056;2023-05-07T08:39:14;35.20;1.00
506;DHT22;551;48.524;9.056;2023-05-07T08:41:40;35.60;1.00
506;DHT22;551;48.524;9.056;2023-05-07T08:44:06;36.50;1.00
506;DHT22;551;48.524;9.056;2023-05-07T08:46:36;39.00;1.00
506;DHT22;551;48.524;9.056;2023-05-07T08:49:02;40.20;1.00
506;DHT22;551;48.524;9.056;2023-05-07T08:51:28;39.70;1.00
506;DHT22;551;48.524;9.056;2023-05-07T08:53:54;39.10;1.00
506;DHT22;551;48.524;9.056;2023-05-07T08:56:19;38.60;1.00
506;DHT22;551;48.524;9.056;2023-05-07T08:58:45;38.40;1.00
506;DHT22;551;48.524;9.056;2023-05-07T09:01:15;38.70;1.00
506;DHT22;551;48.524;9.056;2023-05-07T09:03:44;39.80;1.00
506;DHT22;551;48.524;9.056;2023-05-07T09:06:10;40.00;1.00
506;DHT22;551;48.524;9.056;2023-05-07T09:08:36;40.10;1.00
506;DHT22;551;48.524;9.056;2023-05-07T09:11:02;39.70;1.00
506;DHT22;551;48.524;9.056;2023-05-07T09:13:29;40.20;1.00
506;DHT22;551;48.524;9.056;2023-05-07T09:15:55;39.90;1.00
506;DHT22;551;48.524;9.056;2023-05-07T09:18:20;40.90;1.00
506;DHT22;551;48.524;9.056;2023-05-07T09:20:46;42.10;1.00
506;DHT22;551;48.524;9.056;2023-05-07T09:23:11;42.50;1.00
506;DHT22;551;48.524;9.056;2023-05-07T09:25:37;43.10;1.00
506;DHT22;551;48.524;9.056;2023-05-07T09:28:04;42.20;1.00
506;DHT22;551;48.524;9.056;2023-05-07T09:30:30;42.00;1.00
506;DHT22;551;48.524;9.056;2023-05-07T09:32:58;41.60;1.00
506;DHT22;551;48.524;9.056;2023-05-07T09:35:24;41.70;1.00
506;DHT22;551;48.524;9.056;2023-05-07T09:37:55;41.80;1.00
506;DHT22;551;48.524;9.056;2023-05-07T09:40:28;41.90;1.00
506;DHT22;551;48.524;9.056;2023-05-07T09:42:55;41.60;1.00
506;DHT22;551;48.524;9.056;2023-05-07T09:45:30;42.00;1.00
506;DHT22;551;48.524;9.056;2023-05-07T09:47:57;41.50;1.00
506;DHT22;551;48.524;9.056;2023-05-07T09:50:30;41.80;1.00
506;DHT22;551;48.524;9.056;2023-05-07T09:52:58;43.00;1.00
506;DHT22;551;48.524;9.056;2023-05-07T09:55:24;43.10;1.00
506;DHT22;551;48.524;9.056;2023-05-07T09:57:51;43.00;1.00
506;DHT22;551;48.524;9.056;2023-05-07T10:00:19;42.20;1.00
506;DHT22;551;48.524;9.056;2023-05-07T10:02:51;41.90;1.00
506;DHT22;551;48.524;9.056;2023-05-07T10:05:18;41.30;1.00
506;DHT22;551;48.524;9.056;2023-05-07T10:07:45;41.10;1.00
506;DHT22;551;48.524;9.056;2023-05-07T10:10:11;41.70;1.00
506;DHT22;551;48.524;9.056;2023-05-07T10:12:37;41.60;1.00
506;DHT22;551;48.524;9.056;2023-05-07T10:15:11;41.50;1.00
506;DHT22;551;48.524;9.056;2023-05-07T10:17:40;41.70;1.00
506;DHT22;551;48.524;9.056;2023-05-07T10:20:07;41.90;1.00
506;DHT22;551;48.524;9.056;2023-05-07T10:22:38;42.00;1.00
506;DHT22;551;48.524;9.056;2023-05-07T10:25:18;41.70;1.00
506;DHT22;551;48.524;9.056;2023-05-07T10:27:45;41.40;1.00
506;DHT22;551;48.524;9.056;2023-05-07T10:30:24;40.70;1.00
506;DHT22;551;48.524;9.056;2023-05-07T10:32:55;40.60;1.00
506;DHT22;551;48.524;9.056;2023-05-07T10:35:25;40.70;1.00
506;DHT22;551;48.524;9.056;2023-05-07T10:37:51;40.70;1.00
506;DHT22;551;48.524;9.056;2023-05-07T10:40:18;40.20;1.00
506;DHT22;551;48.524;9.056;2023-05-07T10:43:00;40.10;1.00
506;DHT22;551;48.524;9.056;2023-05-07T10:45:28;39.70;1.00
506;DHT22;551;48.524;9.056;2023-05-07T10:48:13;40.00;1.00
506;DHT22;551;48.524;9.056;2023-05-07T10:50:40;40.20;1.00
506;DHT22;551;48.524;9.056;2023-05-07T10:55:45;39.80;1.00
506;DHT22;551;48.524;9.056;2023-05-07T10:58:26;39.80;1.00
506;DHT22;551;48.524;9.056;2023-05-07T11:01:02;40.30;1.00
506;DHT22;551;48.524;9.056;2023-05-07T11:03:28;40.70;1.00
506;DHT22;551;48.524;9.056;2023-05-07T11:06:15;40.40;1.00
506;DHT22;551;48.524;9.056;2023-05-07T11:08:54;40.00;1.00
506;DHT22;551;48.524;9.056;2023-05-07T11:11:46;40.10;1.00
506;DHT22;551;48.524;9.056;2023-05-07T11:17:06;40.40;1.00
506;DHT22;551;48.524;9.056;2023-05-07T11:19:52;40.20;1.00
506;DHT22;551;48.524;9.056;2023-05-07T11:22:44;39.90;1.00
506;DHT22;551;48.524;9.056;2023-05-07T11:25:10;39.90;1.00
506;DHT22;551;48.524;9.056;2023-05-07T11:27:36;39.80;1.00
506;DHT22;551;48.524;9.056;2023-05-07T11:30:01;38.20;1.00
506;DHT22;551;48.524;9.056;2023-05-07T11:32:29;36.30;1.00
506;DHT22;551;48.524;9.056;2023-05-07T11:34:55;34.90;1.00
506;DHT22;551;48.524;9.056;2023-05-07T11:37:22;33.70;1.00
506;DHT22;551;48.524;9.056;2023-05-07T11:39:48;32.60;1.00
506;DHT22;551;48.524;9.056;2023-05-07T11:42:30;31.80;1.00
506;DHT22;551;48.524;9.056;2023-05-07T11:44:56;30.90;1.00
506;DHT22;551;48.524;9.056;2023-05-07T11:47:22;30.50;1.00
506;DHT22;551;48.524;9.056;2023-05-07T11:49:50;30.00;1.00
506;DHT22;551;48.524;9.056;2023-05-07T11:52:18;29.50;1.00
506;DHT22;551;48.524;9.056;2023-05-07T11:54:51;29.00;1.00
506;DHT22;551;48.524;9.056;2023-05-07T11:57:16;28.60;1.00
506;DHT22;551;48.524;9.056;2023-05-07T11:59:42;28.40;1.00
506;DHT22;551;48.524;9.056;2023-05-07T12:02:14;28.00;1.00
506;DHT22;551;48.524;9.056;2023-05-07T12:04:40;27.70;1.00
506;DHT22;551;48.524;9.056;2023-05-07T12:07:14;27.40;1.00
506;DHT22;551;48.524;9.056;2023-05-07T12:09:41;27.20;1.00
506;DHT22;551;48.524;9.056;2023-05-07T12:12:07;26.80;1.00
506;DHT22;551;48.524;9.056;2023-05-07T12:14:32;26.60;1.00
506;DHT22;551;48.524;9.056;2023-05-07T12:17:00;26.40;1.00
506;DHT22;551;48.524;9.056;2023-05-07T12:19:28;26.30;1.00
506;DHT22;551;48.524;9.056;2023-05-07T12:21:54;26.20;1.00
506;DHT22;551;48.524;9.056;2023-05-07T12:24:21;26.00;1.00
506;DHT22;551;48.524;9.056;2023-05-07T12:26:48;25.80;1.00
506;DHT22;551;48.524;9.056;2023-05-07T12:29:13;25.60;1.00
506;DHT22;551;48.524;9.056;2023-05-07T12:31:41;25.40;1.00
506;DHT22;551;48.524;9.056;2023-05-07T12:34:07;25.20;1.00
506;DHT22;551;48.524;9.056;2023-05-07T12:36:39;25.10;1.00
506;DHT22;551;48.524;9.056;2023-05-07T12:39:06;25.00;1.00
506;DHT22;551;48.524;9.056;2023-05-07T12:41:51;24.80;1.00
506;DHT22;551;48.524;9.056;2023-05-07T12:44:24;24.70;1.00
506;DHT22;551;48.524;9.056;2023-05-07T12:46:50;24.40;1.00
506;DHT22;551;48.524;9.056;2023-05-07T12:49:16;24.20;1.00
506;DHT22;551;48.524;9.056;2023-05-07T12:51:43;23.90;1.00
506;DHT22;551;48.524;9.056;2023-05-07T12:54:09;23.60;1.00
506;DHT22;551;48.524;9.056;2023-05-07T12:56:37;23.50;1.00
506;DHT22;551;48.524;9.056;2023-05-07T12:59:03;23.40;1.00
506;DHT22;551;48.524;9.056;2023-05-07T13:01:30;23.30;1.00
506;DHT22;551;48.524;9.056;2023-05-07T13:04:02;23.10;1.00
506;DHT22;551;48.524;9.056;2023-05-07T13:06:30;22.70;1.00
506;DHT22;551;48.524;9.056;2023-05-07T13:08:56;22.30;1.00
506;DHT22;551;48.524;9.056;2023-05-07T13:11:22;22.10;1.00
506;DHT22;551;48.524;9.056;2023-05-07T13:13:48;21.90;1.00
506;DHT22;551;48.524;9.056;2023-05-07T13:16:13;21.60;1.00
506;DHT22;551;48.524;9.056;2023-05-07T13:18:40;21.30;1.00
506;DHT22;551;48.524;9.056;2023-05-07T13:21:05;21.00;1.00
506;DHT22;551;48.524;9.056;2023-05-07T13:23:31;20.70;1.00
506;DHT22;551;48.524;9.056;2023-05-07T13:25:57;20.60;1.00
506;DHT22;551;48.524;9.056;2023-05-07T13:28:23;20.50;1.00
506;DHT22;551;48.524;9.056;2023-05-07T13:30:49;20.30;1.00
506;DHT22;551;48.524;9.056;2023-05-07T13:33:17;20.20;1.00
506;DHT22;551;48.524;9.056;2023-05-07T13:35:42;20.10;1.00
506;DHT22;551;48.524;9.056;2023-05-07T13:38:08;20.10;1.00
506;DHT22;551;48.524;9.056;2023-05-07T13:40:34;20.00;1.00
506;DHT22;551;48.524;9.056;2023-05-07T13:43:00;19.80;1.00
506;DHT22;551;48.524;9.056;2023-05-07T13:45:29;19.70;1.00
506;DHT22;551;48.524;9.056;2023-05-07T13:47:55;19.60;1.00
506;DHT22;551;48.524;9.056;2023-05-07T13:50:21;19.40;1.00
506;DHT22;551;48.524;9.056;2023-05-07T13:52:46;19.40;1.00
506;DHT22;551;48.524;9.056;2023-05-07T13:55:17;19.30;1.00
506;DHT22;551;48.524;9.056;2023-05-07T13:57:43;19.20;1.00
506;DHT22;551;48.524;9.056;2023-05-07T14:00:09;19.20;1.00
506;DHT22;551;48.524;9.056;2023-05-07T14:02:34;19.20;1.00
506;DHT22;551;48.524;9.056;2023-05-07T14:05:00;19.20;1.00
506;DHT22;551;48.524;9.056;2023-05-07T14:07:25;19.00;1.00
506;DHT22;551;48.524;9.056;2023-05-07T14:09:51;18.50;1.00
506;DHT22;551;48.524;9.056;2023-05-07T14:12:16;18.80;1.00
506;DHT22;551;48.524;9.056;2023-05-07T14:14:42;18.70;1.00
506;DHT22;551;48.524;9.056;2023-05-07T14:17:07;18.60;1.00
506;DHT22;551;48.524;9.056;2023-05-07T14:19:33;18.50;1.00
506;DHT22;551;48.524;9.056;2023-05-07T14:21:59;18.50;1.00
506;DHT22;551;48.524;9.056;2023-05-07T14:24:25;18.60;1.00
506;DHT22;551;48.524;9.056;2023-05-07T14:26:50;18.70;1.00
506;DHT22;551;48.524;9.056;2023-05-07T14:29:16;18.70;1.00
506;DHT22;551;48.524;9.056;2023-05-07T14:31:44;18.90;1.00
506;DHT22;551;48.524;9.056;2023-05-07T14:34:10;18.90;1.00
506;DHT22;551;48.524;9.056;2023-05-07T14:36:35;20.30;1.00
506;DHT22;551;48.524;9.056;2023-05-07T14:39:01;19.00;1.00
506;DHT22;551;48.524;9.056;2023-05-07T14:41:27;19.10;1.00
506;DHT22;551;48.524;9.056;2023-05-07T14:43:53;19.20;1.00
506;DHT22;551;48.524;9.056;2023-05-07T14:46:19;19.40;1.00
506;DHT22;551;48.524;9.056;2023-05-07T14:48:47;19.40;1.00
506;DHT22;551;48.524;9.056;2023-05-07T14:51:13;19.60;1.00
506;DHT22;551;48.524;9.056;2023-05-07T14:53:41;19.60;1.00
506;DHT22;551;48.524;9.056;2023-05-07T14:56:06;19.70;1.00
506;DHT22;551;48.524;9.056;2023-05-07T14:58:33;19.80;1.00
506;DHT22;551;48.524;9.056;2023-05-07T15:00:59;19.90;1.00
506;DHT22;551;48.524;9.056;2023-05-07T15:03:24;19.90;1.00
506;DHT22;551;48.524;9.056;2023-05-07T15:05:50;20.00;1.00
506;DHT22;551;48.524;9.056;2023-05-07T15:08:17;20.00;1.00
506;DHT22;551;48.524;9.056;2023-05-07T15:10:42;20.10;1.00
506;DHT22;551;48.524;9.056;2023-05-07T15:13:09;20.30;1.00
506;DHT22;551;48.524;9.056;2023-05-07T15:15:36;20.40;1.00
506;DHT22;551;48.524;9.056;2023-05-07T15:18:02;20.60;1.00
506;DHT22;551;48.524;9.056;2023-05-07T15:20:27;20.70;1.00
506;DHT22;551;48.524;9.056;2023-05-07T15:22:53;20.70;1.00
506;DHT22;551;48.524;9.056;2023-05-07T15:25:19;20.70;1.00
506;DHT22;551;48.524;9.056;2023-05-07T15:27:44;20.70;1.00
506;DHT22;551;48.524;9.056;2023-05-07T15:30:11;20.70;1.00
506;DHT22;551;48.524;9.056;2023-05-07T15:32:37;20.70;1.00
506;DHT22;551;48.524;9.056;2023-05-07T15:35:04;20.70;1.00
506;DHT22;551;48.524;9.056;2023-05-07T15:37:33;20.70;1.00
506;DHT22;551;48.524;9.056;2023-05-07T15:39:59;20.70;1.00
506;DHT22;551;48.524;9.056;2023-05-07T15:42:24;20.80;1.00
506;DHT22;551;48.524;9.056;2023-05-07T15:44:50;20.80;1.00
506;DHT22;551;48.524;9.056;2023-05-07T15:47:15;20.70;1.00
506;DHT22;551;48.524;9.056;2023-05-07T15:49:41;20.70;1.00
506;DHT22;551;48.524;9.056;2023-05-07T15:52:07;20.70;1.00
506;DHT22;551;48.524;9.056;2023-05-07T15:54:35;20.80;1.00
506;DHT22;551;48.524;9.056;2023-05-07T15:57:03;21.80;1.00
506;DHT22;551;48.524;9.056;2023-05-07T15:59:28;20.80;1.00
506;DHT22;551;48.524;9.056;2023-05-07T16:01:54;20.80;1.00
506;DHT22;551;48.524;9.056;2023-05-07T16:04:19;20.70;1.00
506;DHT22;551;48.524;9.056;2023-05-07T16:06:45;20.60;1.00
506;DHT22;551;48.524;9.056;2023-05-07T16:09:12;20.50;1.00
506;DHT22;551;48.524;9.056;2023-05-07T16:11:37;20.40;1.00
506;DHT22;551;48.524;9.056;2023-05-07T16:14:03;20.40;1.00
506;DHT22;551;48.524;9.056;2023-05-07T16:16:33;20.40;1.00
506;DHT22;551;48.524;9.056;2023-05-07T16:18:59;20.40;1.00
506;DHT22;551;48.524;9.056;2023-05-07T16:21:25;20.30;1.00
506;DHT22;551;48.524;9.056;2023-05-07T16:23:52;20.30;1.00
506;DHT22;551;48.524;9.056;2023-05-07T16:26:17;20.30;1.00
506;DHT22;551;48.524;9.056;2023-05-07T16:28:43;20.30;1.00
506;DHT22;551;48.524;9.056;2023-05-07T16:31:09;20.20;1.00
506;DHT22;551;48.524;9.056;2023-05-07T16:33:34;20.20;1.00
506;DHT22;551;48.524;9.056;2023-05-07T16:36:00;20.10;1.00
506;DHT22;551;48.524;9.056;2023-05-07T16:38:26;20.10;1.00
506;DHT22;551;48.524;9.056;2023-05-07T16:40:53;20.10;1.00
506;DHT22;551;48.524;9.056;2023-05-07T16:43:18;20.20;1.00
506;DHT22;551;48.524;9.056;2023-05-07T16:45:44;20.10;1.00
506;DHT22;551;48.524;9.056;2023-05-07T16:48:11;20.20;1.00
506;DHT22;551;48.524;9.056;2023-05-07T16:50:37;20.00;1.00
506;DHT22;551;48.524;9.056;2023-05-07T16:53:04;19.90;1.00
506;DHT22;551;48.524;9.056;2023-05-07T16:55:30;19.80;1.00